William J. Weber — WDC6537 — position and weather

sailwx.info

Track history (hours):
 
Tides and Currents Weather Stations Pressure Air Temp Water Temp Dewpoint Dewpoint Depression Visibility Wind Speed Wind Dir Waves Ship Positions

William J. Weber

Owner: AMERICAN COMMERCIAL BARGE LINE LLC, Jefferesonville, IN. More information available from US FCC via Universal Licensing System and Coast Guard Vessel Documentation Center.

Last reported at 2014-Oct-04 07:33 UTC. Time now 2014-Oct-23 05:11 UTC.
Position N 29°30' W 094°53'.
Warning: this ship's position is 18 days out of date.

Length 23 m.

Type: Towing. MMSI: 367057640.

Date/timePositionNaut miles runAvg speedWind from/ knotsBaromVisibWave heightAir tempDewpointWater temp
2014-Oct-04 07:33N 29°30' W 094°53'6 6.0
2014-Oct-04 06:33N 29°35' W 094°57'6 6.5
2014-Oct-04 05:33N 29°41' W 094°59'7 6.0
2014-Oct-04 04:27N 29°46' W 095°05'1 1.3
2014-Oct-04 03:33N 29°45' W 095°06'0 0.1
2014-Oct-04 02:29N 29°45' W 095°06'0 0.0
2014-Oct-04 01:33N 29°45' W 095°06'1 0.4
2014-Oct-04 00:04N 29°45' W 095°06'1 1.1
2014-Oct-03 23:33N 29°45' W 095°06'0 0.0
2014-Oct-03 22:32N 29°45' W 095°06'0 0.0
2014-Oct-03 21:33N 29°45' W 095°06'0 0.0
2014-Oct-03 20:31N 29°45' W 095°06'0 0.0
2014-Oct-03 19:26N 29°45' W 095°06'0 0.0
2014-Oct-03 18:32N 29°45' W 095°06'0 0.0
2014-Oct-03 17:29N 29°45' W 095°06'0 0.0
2014-Oct-03 16:33N 29°45' W 095°06'0 0.0
2014-Oct-03 15:20N 29°45' W 095°06'0 0.0
2014-Oct-03 14:21N 29°45' W 095°06'0 0.0
2014-Oct-03 11:30N 29°45' W 095°06'0 0.0
2014-Oct-03 10:25N 29°45' W 095°06'0 0.0
2014-Oct-03 09:33N 29°45' W 095°06'0 0.0
2014-Oct-03 08:13N 29°45' W 095°06'0 0.0
2014-Oct-03 07:29N 29°45' W 095°06'0 0.0
2014-Oct-03 06:15N 29°45' W 095°06'0 0.0
2014-Oct-03 05:33N 29°45' W 095°06'0 0.0
2014-Oct-03 04:33N 29°45' W 095°06'0 0.1
2014-Oct-03 03:27N 29°45' W 095°06'1 0.6
2014-Oct-03 02:31N 29°45' W 095°06'1 0.7
2014-Oct-03 01:31N 29°46' W 095°05'0 0.0
2014-Oct-02 19:13N 29°46' W 095°05'0 0.0
2014-Oct-02 18:26N 29°46' W 095°05'0 0.0
2014-Oct-02 16:20N 29°46' W 095°05'1 1.0
2014-Oct-02 15:33N 29°46' W 095°06'0 0.0
2014-Oct-02 14:33N 29°46' W 095°06'0 0.2
2014-Oct-02 13:30N 29°45' W 095°06'1 0.7
2014-Oct-02 12:33N 29°46' W 095°05'5 4.6
2014-Oct-02 11:33N 29°43' W 095°01'7 6.7
2014-Oct-02 10:33N 29°37' W 094°57'8 7.6
2014-Oct-02 09:33N 29°31' W 094°53'  
2014-Sep-25 16:32N 29°12' W 095°04'6 5.7
2014-Sep-25 15:29N 29°16' W 094°59'0 0.5
2014-Sep-25 14:32N 29°17' W 094°59'5 4.8
2014-Sep-25 13:32N 29°18' W 094°53'  
Track history (hours):
 
Tides and Currents Weather Stations Pressure Air Temp Water Temp Dewpoint Dewpoint Depression Visibility Wind Speed Wind Dir Waves Ship Positions

William J. Weber

Owner: AMERICAN COMMERCIAL BARGE LINE LLC, Jefferesonville, IN. More information available from US FCC via Universal Licensing System and Coast Guard Vessel Documentation Center.

Last reported at 2014-Oct-04 07:33 UTC. Time now 2014-Oct-23 05:11 UTC.
Position N 29°30' W 094°53'.
Warning: this ship's position is 18 days out of date.

Length 23 m.

Type: Towing. MMSI: 367057640.

Date/timePositionNaut miles runAvg speedWind from/ knotsBaromVisibWave heightAir tempDewpointWater temp
2014-Oct-04 07:33N 29°30' W 094°53'6 6.0
2014-Oct-04 06:33N 29°35' W 094°57'6 6.5
2014-Oct-04 05:33N 29°41' W 094°59'7 6.0
2014-Oct-04 04:27N 29°46' W 095°05'1 1.3
2014-Oct-04 03:33N 29°45' W 095°06'0 0.1
2014-Oct-04 02:29N 29°45' W 095°06'0 0.0
2014-Oct-04 01:33N 29°45' W 095°06'1 0.4
2014-Oct-04 00:04N 29°45' W 095°06'1 1.1
2014-Oct-03 23:33N 29°45' W 095°06'0 0.0
2014-Oct-03 22:32N 29°45' W 095°06'0 0.0
2014-Oct-03 21:33N 29°45' W 095°06'0 0.0
2014-Oct-03 20:31N 29°45' W 095°06'0 0.0
2014-Oct-03 19:26N 29°45' W 095°06'0 0.0
2014-Oct-03 18:32N 29°45' W 095°06'0 0.0
2014-Oct-03 17:29N 29°45' W 095°06'0 0.0
2014-Oct-03 16:33N 29°45' W 095°06'0 0.0
2014-Oct-03 15:20N 29°45' W 095°06'0 0.0
2014-Oct-03 14:21N 29°45' W 095°06'0 0.0
2014-Oct-03 11:30N 29°45' W 095°06'0 0.0
2014-Oct-03 10:25N 29°45' W 095°06'0 0.0
2014-Oct-03 09:33N 29°45' W 095°06'0 0.0
2014-Oct-03 08:13N 29°45' W 095°06'0 0.0
2014-Oct-03 07:29N 29°45' W 095°06'0 0.0
2014-Oct-03 06:15N 29°45' W 095°06'0 0.0
2014-Oct-03 05:33N 29°45' W 095°06'0 0.0
2014-Oct-03 04:33N 29°45' W 095°06'0 0.1
2014-Oct-03 03:27N 29°45' W 095°06'1 0.6
2014-Oct-03 02:31N 29°45' W 095°06'1 0.7
2014-Oct-03 01:31N 29°46' W 095°05'0 0.0
2014-Oct-02 19:13N 29°46' W 095°05'0 0.0
2014-Oct-02 18:26N 29°46' W 095°05'0 0.0
2014-Oct-02 16:20N 29°46' W 095°05'1 1.0
2014-Oct-02 15:33N 29°46' W 095°06'0 0.0
2014-Oct-02 14:33N 29°46' W 095°06'0 0.2
2014-Oct-02 13:30N 29°45' W 095°06'1 0.7
2014-Oct-02 12:33N 29°46' W 095°05'5 4.6
2014-Oct-02 11:33N 29°43' W 095°01'7 6.7
2014-Oct-02 10:33N 29°37' W 094°57'8 7.6
2014-Oct-02 09:33N 29°31' W 094°53'  
2014-Sep-25 16:32N 29°12' W 095°04'6 5.7
2014-Sep-25 15:29N 29°16' W 094°59'0 0.5
2014-Sep-25 14:32N 29°17' W 094°59'5 4.8
2014-Sep-25 13:32N 29°18' W 094°53'  

Dump ship's entire track history